createdAt,value
2018-05-07T04:09:33.669Z,1015.49
2018-05-07T04:09:59.181Z,1015.5
2018-05-07T04:10:24.645Z,1015.49
2018-05-07T04:10:50.203Z,1015.48
2018-05-07T04:11:15.694Z,1015.48
2018-05-07T04:11:41.247Z,1015.48
2018-05-07T04:12:06.680Z,1015.5
2018-05-07T04:12:32.286Z,1015.45
2018-05-07T04:12:57.940Z,1015.51
2018-05-07T04:13:23.359Z,1015.47
2018-05-07T04:13:48.843Z,1015.45
2018-05-07T04:14:14.290Z,1015.46
2018-05-07T04:14:39.763Z,1015.47
2018-05-07T04:15:05.222Z,1015.49
2018-05-07T04:15:30.723Z,1015.46
2018-05-07T04:15:56.292Z,1015.46
2018-05-07T04:16:21.835Z,1015.46
2018-05-07T04:16:47.275Z,1015.43
2018-05-07T04:17:12.897Z,1015.44
2018-05-07T04:17:38.334Z,1015.45
2018-05-07T04:18:03.749Z,1015.43
2018-05-07T04:19:17.574Z,1015.44
2018-05-07T04:19:43.070Z,1015.43
2018-05-07T04:20:08.527Z,1015.47
2018-05-07T04:20:33.980Z,1015.44
2018-05-07T04:20:59.482Z,1015.45
2018-05-07T04:21:24.982Z,1015.46
2018-05-07T04:21:50.520Z,1015.45
2018-05-07T04:22:15.962Z,1015.42
2018-05-07T04:22:41.630Z,1015.41
2018-05-07T04:23:07.098Z,1015.42
2018-05-07T04:23:32.706Z,1015.39
2018-05-07T04:23:58.201Z,1015.41
2018-05-07T04:24:23.671Z,1015.42
2018-05-07T04:24:49.175Z,1015.39
2018-05-07T04:25:14.637Z,1015.39
2018-05-07T04:25:40.146Z,1015.41
2018-05-07T04:26:48.891Z,1015.38
2018-05-07T04:27:14.371Z,1015.4
2018-05-07T04:27:39.857Z,1015.34
2018-05-07T04:28:05.349Z,1015.34
2018-05-07T04:28:30.832Z,1015.36
2018-05-07T04:28:56.319Z,1015.38
2018-05-07T04:29:21.853Z,1015.34
2018-05-07T04:29:47.326Z,1015.41
2018-05-07T04:30:12.783Z,1015.38
2018-05-07T04:30:38.266Z,1015.36
2018-05-07T04:31:03.709Z,1015.39
2018-05-07T04:31:29.203Z,1015.42
2018-05-07T04:31:54.684Z,1015.4
2018-05-07T04:32:20.209Z,1015.4
2018-05-07T04:32:45.684Z,1015.38
2018-05-07T04:33:11.207Z,1015.41
2018-05-07T04:33:36.711Z,1015.44
2018-05-07T04:34:02.185Z,1015.4
2018-05-07T04:34:27.648Z,1015.41
2018-05-07T04:34:53.122Z,1015.39
2018-05-07T04:35:18.632Z,1015.39
2018-05-07T04:35:44.117Z,1015.4
2018-05-07T04:36:09.588Z,1015.44
2018-05-07T04:36:35.060Z,1015.41
2018-05-07T04:37:00.617Z,1015.4
2018-05-07T04:37:26.246Z,1015.42
2018-05-07T04:37:51.847Z,1015.4
2018-05-07T04:38:17.372Z,1015.39
2018-05-07T04:38:42.936Z,1015.38
2018-05-07T04:39:08.467Z,1015.38
2018-05-07T04:39:33.970Z,1015.39
2018-05-07T04:39:59.583Z,1015.41
2018-05-07T04:40:25.064Z,1015.42
2018-05-07T04:40:50.579Z,1015.42
2018-05-07T04:41:16.090Z,1015.36
2018-05-07T04:41:41.600Z,1015.37
2018-05-07T04:42:07.101Z,1015.41
2018-05-07T04:42:32.648Z,1015.38
2018-05-07T04:42:58.159Z,1015.37
2018-05-07T04:43:23.678Z,1015.39
2018-05-07T04:43:49.198Z,1015.38
2018-05-07T04:44:14.780Z,1015.35
2018-05-07T04:44:40.318Z,1015.38
2018-05-07T04:45:05.790Z,1015.38
2018-05-07T04:45:31.356Z,1015.35
2018-05-07T04:45:56.741Z,1015.41
2018-05-07T04:46:22.319Z,1015.39
2018-05-07T04:46:47.821Z,1015.39
2018-05-07T04:47:13.614Z,1015.39
2018-05-07T04:47:39.058Z,1015.39
2018-05-07T04:48:04.676Z,1015.42
2018-05-07T04:48:30.327Z,1015.39
2018-05-07T04:48:56.003Z,1015.38
2018-05-07T04:49:21.492Z,1015.38
2018-05-07T04:49:47.024Z,1015.4
2018-05-07T04:50:12.695Z,1015.4
2018-05-07T04:50:38.041Z,1015.44
2018-05-07T04:51:03.608Z,1015.4
2018-05-07T04:51:29.033Z,1015.42
2018-05-07T04:51:54.541Z,1015.37
2018-05-07T04:52:20.108Z,1015.41
2018-05-07T04:52:45.599Z,1015.37
2018-05-07T04:53:11.071Z,1015.37
2018-05-07T04:53:36.528Z,1015.35
2018-05-07T04:54:02.010Z,1015.38
2018-05-07T04:54:27.565Z,1015.38
2018-05-07T04:54:53.137Z,1015.37
2018-05-07T04:55:18.681Z,1015.39
2018-05-07T04:55:44.169Z,1015.34
2018-05-07T04:56:09.658Z,1015.36
2018-05-07T04:56:35.177Z,1015.36
2018-05-07T04:57:00.690Z,1015.32
2018-05-07T04:57:26.153Z,1015.35
2018-05-07T04:57:51.637Z,1015.31
2018-05-07T04:58:17.135Z,1015.3
2018-05-07T04:58:42.601Z,1015.32
2018-05-07T04:59:08.081Z,1015.31
2018-05-07T04:59:33.541Z,1015.28
2018-05-07T04:59:59.049Z,1015.36
2018-05-07T05:00:24.530Z,1015.33
2018-05-07T05:01:38.333Z,1015.32
2018-05-07T05:02:03.843Z,1015.34
2018-05-07T05:02:29.335Z,1015.36
2018-05-07T05:02:54.805Z,1015.33
2018-05-07T05:03:20.332Z,1015.34
2018-05-07T05:03:45.773Z,1015.31
2018-05-07T05:04:11.273Z,1015.34
2018-05-07T05:04:36.781Z,1015.35
2018-05-07T05:05:02.307Z,1015.36
2018-05-07T05:05:27.797Z,1015.37
2018-05-07T05:05:53.298Z,1015.32
2018-05-07T05:06:18.813Z,1015.31
2018-05-07T05:06:44.309Z,1015.35
2018-05-07T05:07:09.892Z,1015.35
2018-05-07T05:07:35.330Z,1015.35
2018-05-07T05:08:00.822Z,1015.35
2018-05-07T05:08:26.287Z,1015.32
2018-05-07T05:08:51.743Z,1015.37
2018-05-07T05:10:05.559Z,1015.38
2018-05-07T05:10:31.037Z,1015.36
2018-05-07T05:10:56.508Z,1015.36
2018-05-07T05:11:21.991Z,1015.35
2018-05-07T05:11:47.481Z,1015.39
2018-05-07T05:12:12.979Z,1015.37
2018-05-07T05:12:38.416Z,1015.37
2018-05-07T05:13:03.886Z,1015.36
2018-05-07T05:13:29.389Z,1015.38
2018-05-07T05:13:54.857Z,1015.37
2018-05-07T05:14:20.380Z,1015.34
2018-05-07T05:14:45.851Z,1015.37
2018-05-07T05:15:11.330Z,1015.37
2018-05-07T05:15:36.787Z,1015.38
2018-05-07T05:16:02.252Z,1015.34
2018-05-07T05:16:27.744Z,1015.39
2018-05-07T05:16:53.176Z,1015.42
2018-05-07T05:17:18.691Z,1015.41
2018-05-07T05:17:44.163Z,1015.38
2018-05-07T05:18:09.669Z,1015.39
2018-05-07T05:18:35.220Z,1015.41
2018-05-07T05:19:00.747Z,1015.37
2018-05-07T05:19:26.197Z,1015.32
2018-05-07T05:19:51.714Z,1015.35
2018-05-07T05:20:17.291Z,1015.38
2018-05-07T05:20:42.730Z,1015.34
2018-05-07T05:21:08.307Z,1015.37
2018-05-07T05:21:33.698Z,1015.32
2018-05-07T05:21:59.198Z,1015.35
2018-05-07T05:22:24.772Z,1015.34
2018-05-07T05:22:50.243Z,1015.35
2018-05-07T05:23:15.805Z,1015.33
2018-05-07T05:23:41.287Z,1015.32
2018-05-07T05:24:06.766Z,1015.32
2018-05-07T05:24:32.281Z,1015.32
2018-05-07T05:24:57.846Z,1015.38
2018-05-07T05:25:23.450Z,1015.33
2018-05-07T05:25:48.989Z,1015.31
2018-05-07T05:26:14.535Z,1015.34
2018-05-07T05:26:40.062Z,1015.32
2018-05-07T05:27:05.547Z,1015.35
2018-05-07T05:27:31.110Z,1015.36
2018-05-07T05:27:56.677Z,1015.38
2018-05-07T05:28:22.301Z,1015.36
2018-05-07T05:28:47.766Z,1015.37
2018-05-07T05:29:13.286Z,1015.41
2018-05-07T05:29:38.831Z,1015.39
2018-05-07T05:30:04.374Z,1015.4
2018-05-07T05:30:29.878Z,1015.42
2018-05-07T05:30:55.384Z,1015.38
2018-05-07T05:31:20.963Z,1015.32
2018-05-07T05:31:46.429Z,1015.37
2018-05-07T05:32:11.965Z,1015.35
2018-05-07T05:32:37.500Z,1015.32
2018-05-07T05:33:02.994Z,1015.41
2018-05-07T05:33:28.509Z,1015.39
2018-05-07T05:33:54.053Z,1015.37
2018-05-07T05:34:19.511Z,1015.36
2018-05-07T05:34:45.066Z,1015.35
2018-05-07T05:35:10.584Z,1015.35
2018-05-07T05:35:36.085Z,1015.37
2018-05-07T05:36:49.967Z,1015.38
2018-05-07T05:37:15.445Z,1015.34
2018-05-07T05:37:40.928Z,1015.39
2018-05-07T05:38:06.432Z,1015.4
2018-05-07T05:38:31.997Z,1015.37
2018-05-07T05:38:57.499Z,1015.41
2018-05-07T05:39:23.082Z,1015.35
2018-05-07T05:39:48.615Z,1015.35
2018-05-07T05:40:14.282Z,1015.36
2018-05-07T05:40:39.735Z,1015.36
2018-05-07T05:41:05.355Z,1015.34
2018-05-07T05:41:30.820Z,1015.34
2018-05-07T05:41:56.378Z,1015.34
2018-05-07T05:42:21.905Z,1015.36
2018-05-07T05:42:47.407Z,1015.34
2018-05-07T05:43:12.971Z,1015.38
2018-05-07T05:43:38.551Z,1015.36
2018-05-07T05:44:04.075Z,1015.33
2018-05-07T05:44:29.623Z,1015.36
2018-05-07T05:44:55.076Z,1015.32
2018-05-07T05:45:20.660Z,1015.32
2018-05-07T05:45:46.187Z,1015.31
2018-05-07T05:46:11.681Z,1015.31
2018-05-07T05:47:20.506Z,1015.33
2018-05-07T05:47:45.988Z,1015.27
2018-05-07T05:48:11.518Z,1015.32
2018-05-07T05:48:36.973Z,1015.32
2018-05-07T05:49:02.518Z,1015.32
2018-05-07T05:49:28.043Z,1015.28
2018-05-07T05:49:53.602Z,1015.31
2018-05-07T05:50:19.117Z,1015.31
2018-05-07T05:50:44.672Z,1015.27
2018-05-07T05:51:10.271Z,1015.25
2018-05-07T05:51:35.787Z,1015.25
2018-05-07T05:52:01.436Z,1015.27
2018-05-07T05:52:26.918Z,1015.27
2018-05-07T05:52:52.457Z,1015.22
2018-05-07T05:53:17.946Z,1015.31
2018-05-07T05:53:43.471Z,1015.26
2018-05-07T05:54:08.993Z,1015.26
2018-05-07T05:54:34.502Z,1015.24
2018-05-07T05:55:00.024Z,1015.25
2018-05-07T05:55:25.627Z,1015.29
2018-05-07T05:55:51.366Z,1015.26
2018-05-07T05:56:16.819Z,1015.24
2018-05-07T05:56:42.260Z,1015.25
2018-05-07T05:57:07.736Z,1015.27
2018-05-07T05:57:33.198Z,1015.26
2018-05-07T05:57:58.682Z,1015.25
2018-05-07T05:58:24.153Z,1015.24
2018-05-07T05:58:49.635Z,1015.23
2018-05-07T05:59:15.179Z,1015.21
2018-05-07T05:59:40.678Z,1015.26
2018-05-07T06:00:06.222Z,1015.25
2018-05-07T06:00:31.714Z,1015.23
2018-05-07T06:00:57.284Z,1015.25
2018-05-07T06:01:23.039Z,1015.28
2018-05-07T06:01:48.527Z,1015.27
2018-05-07T06:02:14.071Z,1015.23
2018-05-07T06:02:39.609Z,1015.29
2018-05-07T06:03:05.153Z,1015.33
2018-05-07T06:03:30.653Z,1015.31
2018-05-07T06:03:56.272Z,1015.3
2018-05-07T06:04:21.712Z,1015.34
2018-05-07T06:04:47.226Z,1015.34
2018-05-07T06:05:12.722Z,1015.34
2018-05-07T06:06:10.765Z,1015.38
2018-05-07T06:06:36.261Z,1015.39
2018-05-07T06:07:01.739Z,1015.39
2018-05-07T06:07:27.281Z,1015.39
2018-05-07T06:07:52.746Z,1015.37
2018-05-07T06:08:18.353Z,1015.39
2018-05-07T06:08:43.896Z,1015.36
2018-05-07T06:09:09.395Z,1015.37
2018-05-07T06:09:34.907Z,1015.4
2018-05-07T06:10:00.404Z,1015.39
2018-05-07T06:10:25.901Z,1015.41
2018-05-07T06:10:51.402Z,1015.43
2018-05-07T06:11:16.901Z,1015.4
2018-05-07T06:11:42.453Z,1015.38
2018-05-07T06:12:07.964Z,1015.4
2018-05-07T06:12:33.471Z,1015.38
2018-05-07T06:12:58.944Z,1015.45
2018-05-07T06:13:24.452Z,1015.39
2018-05-07T06:13:49.958Z,1015.38
2018-05-07T06:14:15.450Z,1015.34
2018-05-07T06:14:41.099Z,1015.39
2018-05-07T06:15:06.483Z,1015.42
2018-05-07T06:15:31.978Z,1015.41
2018-05-07T06:15:57.499Z,1015.35
2018-05-07T06:16:23.012Z,1015.39
2018-05-07T06:16:48.513Z,1015.41
2018-05-07T06:17:14.067Z,1015.4
2018-05-07T06:17:39.583Z,1015.36
2018-05-07T06:18:05.121Z,1015.33
2018-05-07T06:18:30.673Z,1015.37
2018-05-07T06:18:56.229Z,1015.34
2018-05-07T06:19:21.739Z,1015.38
2018-05-07T06:19:47.204Z,1015.37
2018-05-07T06:20:12.759Z,1015.35
2018-05-07T06:20:38.252Z,1015.35
2018-05-07T06:21:03.750Z,1015.34
2018-05-07T06:21:29.284Z,1015.33
2018-05-07T06:21:54.783Z,1015.39
2018-05-07T06:22:20.263Z,1015.37
2018-05-07T06:22:45.894Z,1015.38
2018-05-07T06:23:11.415Z,1015.37
2018-05-07T06:23:37.166Z,1015.4
2018-05-07T06:24:02.723Z,1015.4
2018-05-07T06:24:28.197Z,1015.4
2018-05-07T06:24:53.702Z,1015.41
2018-05-07T06:25:19.347Z,1015.42
2018-05-07T06:25:45.022Z,1015.44
2018-05-07T06:26:10.574Z,1015.41
2018-05-07T06:26:36.223Z,1015.44
2018-05-07T06:27:01.620Z,1015.4
2018-05-07T06:27:27.102Z,1015.42
2018-05-07T06:27:52.842Z,1015.42
2018-05-07T06:28:18.357Z,1015.39
2018-05-07T06:28:44.415Z,1015.39
2018-05-07T06:29:10.342Z,1015.42
2018-05-07T06:29:36.244Z,1015.45
2018-05-07T06:30:01.774Z,1015.37
2018-05-07T06:30:27.284Z,1015.43
2018-05-07T06:30:52.813Z,1015.4
2018-05-07T06:31:18.290Z,1015.42
2018-05-07T06:31:43.892Z,1015.4
2018-05-07T06:32:09.429Z,1015.4
2018-05-07T06:32:34.961Z,1015.35
2018-05-07T06:33:00.671Z,1015.37
2018-05-07T06:33:26.173Z,1015.35
2018-05-07T06:33:51.819Z,1015.38
2018-05-07T06:34:17.308Z,1015.33
2018-05-07T06:34:42.822Z,1015.38
2018-05-07T06:35:08.329Z,1015.36
2018-05-07T06:35:33.951Z,1015.38
2018-05-07T06:35:59.448Z,1015.47
2018-05-07T06:36:24.962Z,1015.38
2018-05-07T06:36:50.689Z,1015.4
2018-05-07T06:37:16.227Z,1015.34
2018-05-07T06:37:42.033Z,1015.41
2018-05-07T06:38:07.589Z,1015.36
2018-05-07T06:38:33.151Z,1015.35
2018-05-07T06:38:58.666Z,1015.33
2018-05-07T06:39:24.291Z,1015.33
2018-05-07T06:39:49.951Z,1015.38
2018-05-07T06:40:15.751Z,1015.35
2018-05-07T06:40:41.324Z,1015.42
2018-05-07T06:41:06.932Z,1015.39
2018-05-07T06:41:32.731Z,1015.4
2018-05-07T06:41:58.290Z,1015.4
2018-05-07T06:42:24.227Z,1015.36
2018-05-07T06:42:49.977Z,1015.4
2018-05-07T06:43:15.569Z,1015.35
2018-05-07T06:43:41.248Z,1015.37
2018-05-07T06:44:06.974Z,1015.39
2018-05-07T06:44:32.457Z,1015.39
2018-05-07T06:44:58.006Z,1015.32
2018-05-07T06:45:23.507Z,1015.34
2018-05-07T06:45:49.107Z,1015.36
2018-05-07T06:46:14.708Z,1015.35
2018-05-07T06:46:40.393Z,1015.37
2018-05-07T06:47:05.901Z,1015.33
2018-05-07T06:47:31.303Z,1015.34
2018-05-07T06:47:56.869Z,1015.3
2018-05-07T06:48:22.560Z,1015.33
2018-05-07T06:48:48.200Z,1015.35
2018-05-07T06:49:58.803Z,1015.34
2018-05-07T06:50:24.622Z,1015.33
2018-05-07T06:50:50.510Z,1015.36
2018-05-07T06:51:15.888Z,1015.33
2018-05-07T06:51:41.379Z,1015.3
2018-05-07T06:52:07.108Z,1015.29
2018-05-07T06:52:32.705Z,1015.34
2018-05-07T06:52:58.295Z,1015.32
2018-05-07T06:53:23.775Z,1015.33
2018-05-07T06:53:49.425Z,1015.28
2018-05-07T06:54:14.799Z,1015.33
2018-05-07T06:54:40.367Z,1015.32
2018-05-07T06:55:05.892Z,1015.33
2018-05-07T06:55:31.440Z,1015.32
2018-05-07T06:55:56.949Z,1015.31
2018-05-07T06:56:22.753Z,1015.34
2018-05-07T06:56:48.234Z,1015.32
2018-05-07T06:57:13.713Z,1015.33
2018-05-07T06:57:39.249Z,1015.29
2018-05-07T06:58:04.801Z,1015.37
2018-05-07T06:58:30.298Z,1015.35
2018-05-07T06:58:55.879Z,1015.34
2018-05-07T06:59:21.511Z,1015.34
2018-05-07T06:59:47.020Z,1015.3
2018-05-07T07:00:12.817Z,1015.37
2018-05-07T07:00:38.132Z,1015.34
2018-05-07T07:01:03.833Z,1015.37
2018-05-07T07:01:29.335Z,1015.39
2018-05-07T07:01:54.908Z,1015.37
2018-05-07T07:02:20.499Z,1015.37
2018-05-07T07:02:46.085Z,1015.4
2018-05-07T07:03:11.481Z,1015.39
2018-05-07T07:03:36.968Z,1015.36
2018-05-07T07:04:02.418Z,1015.35
2018-05-07T07:04:28.312Z,1015.36
2018-05-07T07:04:53.881Z,1015.37
2018-05-07T07:05:19.401Z,1015.33
2018-05-07T07:05:44.903Z,1015.33
2018-05-07T07:06:10.566Z,1015.4
2018-05-07T07:06:36.116Z,1015.39
2018-05-07T07:07:01.595Z,1015.43
2018-05-07T07:07:27.205Z,1015.35
2018-05-07T07:07:52.715Z,1015.36
2018-05-07T07:08:18.362Z,1015.38
2018-05-07T07:08:44.104Z,1015.38
2018-05-07T07:09:09.548Z,1015.36
2018-05-07T07:09:35.090Z,1015.38
2018-05-07T07:10:00.663Z,1015.4
2018-05-07T07:10:26.169Z,1015.42
2018-05-07T07:10:51.687Z,1015.38
2018-05-07T07:11:17.187Z,1015.43
2018-05-07T07:11:42.693Z,1015.39
2018-05-07T07:12:08.311Z,1015.41
2018-05-07T07:12:33.934Z,1015.41
2018-05-07T07:12:59.507Z,1015.45
2018-05-07T07:13:25.160Z,1015.39
2018-05-07T07:13:50.665Z,1015.38
2018-05-07T07:14:16.218Z,1015.42
2018-05-07T07:14:41.803Z,1015.44
2018-05-07T07:15:07.520Z,1015.37
2018-05-07T07:15:33.185Z,1015.4
2018-05-07T07:15:58.601Z,1015.35
2018-05-07T07:16:24.146Z,1015.41
2018-05-07T07:16:49.722Z,1015.4
2018-05-07T07:17:15.288Z,1015.41
2018-05-07T07:17:40.817Z,1015.36
2018-05-07T07:18:06.444Z,1015.38
2018-05-07T07:18:32.018Z,1015.36
2018-05-07T07:18:57.710Z,1015.35
2018-05-07T07:19:23.324Z,1015.37
2018-05-07T07:19:49.418Z,1015.36
2018-05-07T07:20:15.068Z,1015.36
2018-05-07T07:20:40.621Z,1015.32
2018-05-07T07:21:06.160Z,1015.34
2018-05-07T07:21:31.696Z,1015.36
2018-05-07T07:21:57.328Z,1015.27
2018-05-07T07:22:22.890Z,1015.28
2018-05-07T07:22:48.415Z,1015.3
2018-05-07T07:23:13.989Z,1015.32
2018-05-07T07:23:39.509Z,1015.3
2018-05-07T07:24:05.096Z,1015.29
2018-05-07T07:24:30.748Z,1015.28
2018-05-07T07:24:56.237Z,1015.3
2018-05-07T07:25:21.809Z,1015.23
2018-05-07T07:25:47.446Z,1015.27
2018-05-07T07:26:13.031Z,1015.26
2018-05-07T07:26:38.584Z,1015.23
2018-05-07T07:27:04.196Z,1015.28
2018-05-07T07:27:29.761Z,1015.27
2018-05-07T07:27:55.532Z,1015.27
2018-05-07T07:28:20.951Z,1015.29
2018-05-07T07:28:46.530Z,1015.33
2018-05-07T07:29:11.988Z,1015.34
2018-05-07T07:29:37.601Z,1015.3
2018-05-07T07:30:03.197Z,1015.32
2018-05-07T07:30:28.742Z,1015.23
2018-05-07T07:30:54.311Z,1015.29
2018-05-07T07:31:19.895Z,1015.28
2018-05-07T07:31:45.494Z,1015.31
2018-05-07T07:32:11.069Z,1015.31
2018-05-07T07:32:36.666Z,1015.24
2018-05-07T07:33:02.235Z,1015.21
2018-05-07T07:33:27.763Z,1015.26
2018-05-07T07:33:53.488Z,1015.3
2018-05-07T07:34:18.890Z,1015.21
2018-05-07T07:34:44.625Z,1015.26
2018-05-07T07:35:10.303Z,1015.29
2018-05-07T07:35:35.950Z,1015.27
2018-05-07T07:36:01.495Z,1015.25
2018-05-07T07:36:27.051Z,1015.32
2018-05-07T07:36:52.658Z,1015.29
2018-05-07T07:37:18.322Z,1015.25
2018-05-07T07:37:43.878Z,1015.25
2018-05-07T07:38:09.500Z,1015.24
2018-05-07T07:38:35.106Z,1015.29
2018-05-07T07:39:00.704Z,1015.28
2018-05-07T07:39:26.424Z,1015.31
2018-05-07T07:39:51.934Z,1015.2
2018-05-07T07:40:17.636Z,1015.28
2018-05-07T07:40:43.283Z,1015.22
2018-05-07T07:41:08.885Z,1015.29
2018-05-07T07:41:34.400Z,1015.22
2018-05-07T07:42:00.019Z,1015.23
2018-05-07T07:42:25.614Z,1015.24
2018-05-07T07:42:51.159Z,1015.21
2018-05-07T07:43:16.759Z,1015.2
2018-05-07T07:43:42.314Z,1015.17
2018-05-07T07:44:07.883Z,1015.22
2018-05-07T07:44:33.481Z,1015.22
2018-05-07T07:44:59.094Z,1015.23
2018-05-07T07:45:24.691Z,1015.21
2018-05-07T07:45:50.237Z,1015.24
2018-05-07T07:46:15.880Z,1015.22
2018-05-07T07:46:41.349Z,1015.19
2018-05-07T07:47:07.949Z,1015.17
2018-05-07T07:47:33.853Z,1015.21
2018-05-07T07:47:59.405Z,1015.22
2018-05-07T07:48:24.976Z,1015.17
2018-05-07T07:48:50.554Z,1015.21
2018-05-07T07:49:16.078Z,1015.26
2018-05-07T07:49:41.715Z,1015.22
2018-05-07T07:50:07.331Z,1015.19
2018-05-07T07:50:32.829Z,1015.17
2018-05-07T07:50:58.453Z,1015.19
2018-05-07T07:51:25.543Z,1015.21
2018-05-07T07:51:52.848Z,1015.24
2018-05-07T07:52:19.110Z,1015.19
2018-05-07T07:52:44.643Z,1015.2
2018-05-07T07:53:10.221Z,1015.2
2018-05-07T07:53:35.961Z,1015.17
2018-05-07T07:54:01.602Z,1015.16
2018-05-07T07:54:28.953Z,1015.2
2018-05-07T07:54:56.720Z,1015.23
2018-05-07T07:55:24.866Z,1015.22
2018-05-07T07:55:51.800Z,1015.2
2018-05-07T07:56:18.406Z,1015.25
2018-05-07T07:56:44.253Z,1015.21
2018-05-07T07:57:11.344Z,1015.22
2018-05-07T07:57:37.208Z,1015.2
2018-05-07T07:58:04.994Z,1015.23
2018-05-07T07:58:30.379Z,1015.16
2018-05-07T07:58:56.163Z,1015.18
2018-05-07T07:59:21.907Z,1015.19
2018-05-07T07:59:47.370Z,1015.17
2018-05-07T08:00:12.922Z,1015.2
2018-05-07T08:00:38.465Z,1015.16
2018-05-07T08:01:37.416Z,1015.16
2018-05-07T08:02:05.211Z,1015.13
2018-05-07T08:02:30.776Z,1015.17
2018-05-07T08:02:56.306Z,1015.18
2018-05-07T08:03:21.943Z,1015.16
2018-05-07T08:03:47.671Z,1015.18
2018-05-07T08:04:14.175Z,1015.22
2018-05-07T08:04:39.916Z,1015.21
2018-05-07T08:05:05.465Z,1015.13
2018-05-07T08:05:31.024Z,1015.15
2018-05-07T08:05:56.522Z,1015.13
2018-05-07T08:06:22.103Z,1015.13
2018-05-07T08:06:47.649Z,1015.17
2018-05-07T08:07:13.194Z,1015.12
2018-05-07T08:07:38.710Z,1015.18
2018-05-07T08:08:04.223Z,1015.12
2018-05-07T08:08:29.763Z,1015.09
2018-05-07T08:08:55.299Z,1015.12
2018-05-07T08:09:20.829Z,1015.14
2018-05-07T08:09:46.477Z,1015.13
2018-05-07T08:10:12.133Z,1015.08
2018-05-07T08:10:37.774Z,1015.11
2018-05-07T08:11:03.271Z,1015.01
2018-05-07T08:11:28.852Z,1015.1
2018-05-07T08:11:54.427Z,1015.06
2018-05-07T08:12:20.242Z,1015.04
2018-05-07T08:12:45.629Z,1015.03
2018-05-07T08:13:11.209Z,1015.05
2018-05-07T08:13:36.772Z,1015.01
2018-05-07T08:14:02.556Z,1015.2
2018-05-07T08:14:28.241Z,1015.06
2018-05-07T08:14:53.812Z,1015.04
2018-05-07T08:15:19.784Z,1015.08
2018-05-07T08:15:45.599Z,1015.04
2018-05-07T08:16:11.329Z,1015.06
2018-05-07T08:16:37.675Z,1015.06
2018-05-07T08:17:04.106Z,1015.13
2018-05-07T08:17:30.419Z,1015.14
2018-05-07T08:17:57.036Z,1015.08
2018-05-07T08:18:23.613Z,1015.1
2018-05-07T08:18:49.133Z,1015.05
2018-05-07T08:19:15.221Z,1015.06
2018-05-07T08:19:41.491Z,1015.08
2018-05-07T08:20:07.077Z,1015.09
2018-05-07T08:20:32.741Z,1015.02
2018-05-07T08:20:58.415Z,1015.09
2018-05-07T08:21:25.221Z,1015.06
2018-05-07T08:21:50.737Z,1015.08
2018-05-07T08:22:16.233Z,1015.08
2018-05-07T08:22:41.764Z,1015.09
2018-05-07T08:23:07.363Z,1015.11
2018-05-07T08:23:32.918Z,1015.06
2018-05-07T08:23:58.563Z,1015.04
2018-05-07T08:24:24.329Z,1015.01
2018-05-07T08:24:49.875Z,1015
2018-05-07T08:25:15.531Z,1015
2018-05-07T08:25:41.216Z,1015.04
2018-05-07T08:26:06.792Z,1015.04
2018-05-07T08:26:32.529Z,1015.07
2018-05-07T08:26:58.061Z,1015.01
2018-05-07T08:27:23.658Z,1014.96
2018-05-07T08:27:49.210Z,1015.02
2018-05-07T08:28:14.766Z,1014.97
2018-05-07T08:28:40.347Z,1014.99
2018-05-07T08:29:05.884Z,1015.01
2018-05-07T08:29:31.495Z,1015.06
2018-05-07T08:29:57.106Z,1015.01
2018-05-07T08:30:22.835Z,1014.94
2018-05-07T08:30:48.426Z,1015
2018-05-07T08:31:14.054Z,1015
2018-05-07T08:31:39.778Z,1015.08
2018-05-07T08:32:05.338Z,1014.97
2018-05-07T08:32:31.307Z,1015.05
2018-05-07T08:32:57.278Z,1015.02
2018-05-07T08:33:22.929Z,1015.06
2018-05-07T08:33:48.534Z,1015
2018-05-07T08:34:14.242Z,1015.03
2018-05-07T08:34:39.907Z,1015.03
2018-05-07T08:35:05.750Z,1015.01
2018-05-07T08:35:31.810Z,1014.96
2018-05-07T08:35:57.160Z,1014.95
2018-05-07T08:36:22.790Z,1015.01
2018-05-07T08:36:49.717Z,1015
2018-05-07T08:37:15.728Z,1014.98
2018-05-07T08:37:42.685Z,1015.02
2018-05-07T08:38:07.672Z,1014.96
2018-05-07T08:38:33.839Z,1014.97
2018-05-07T08:38:59.689Z,1015.05
2018-05-07T08:39:25.498Z,1015
2018-05-07T08:39:50.933Z,1014.99
2018-05-07T08:40:16.491Z,1014.95
2018-05-07T08:40:42.289Z,1014.97
2018-05-07T08:41:08.893Z,1015
2018-05-07T08:41:34.614Z,1015.01
2018-05-07T08:42:00.317Z,1014.99
2018-05-07T08:42:25.936Z,1014.93
2018-05-07T08:42:51.616Z,1014.97
2018-05-07T08:43:17.494Z,1014.93
2018-05-07T08:43:43.173Z,1014.98
2018-05-07T08:44:08.692Z,1015.03
2018-05-07T08:44:34.274Z,1014.9
2018-05-07T08:44:59.805Z,1014.95
2018-05-07T08:45:25.410Z,1014.92
2018-05-07T08:45:51.067Z,1014.93
2018-05-07T08:46:16.703Z,1014.94
2018-05-07T08:46:42.292Z,1014.89
2018-05-07T08:47:07.853Z,1014.88
2018-05-07T08:47:33.465Z,1014.96
2018-05-07T08:47:59.007Z,1014.89
2018-05-07T08:48:24.604Z,1014.88
2018-05-07T08:48:50.178Z,1014.92
2018-05-07T08:49:15.699Z,1014.9
2018-05-07T08:49:41.294Z,1014.93
2018-05-07T08:50:06.898Z,1014.9
2018-05-07T08:50:32.576Z,1014.89
2018-05-07T08:50:58.248Z,1014.88
2018-05-07T08:51:23.706Z,1014.91
2018-05-07T08:52:32.525Z,1014.87
2018-05-07T08:52:58.200Z,1014.83
2018-05-07T08:53:23.598Z,1014.83
2018-05-07T08:53:49.112Z,1014.81
2018-05-07T08:54:14.747Z,1014.85
2018-05-07T08:54:40.272Z,1014.8
2018-05-07T08:55:05.798Z,1014.85
2018-05-07T08:55:31.399Z,1014.85
2018-05-07T08:55:56.934Z,1014.82
2018-05-07T08:56:22.488Z,1014.81
2018-05-07T08:56:48.172Z,1014.77
2018-05-07T08:57:13.743Z,1014.78
2018-05-07T08:57:39.354Z,1014.8
2018-05-07T08:58:04.993Z,1014.75
2018-05-07T08:58:30.535Z,1014.74
2018-05-07T08:58:56.242Z,1014.73
2018-05-07T08:59:21.917Z,1014.73
2018-05-07T08:59:47.556Z,1014.72
2018-05-07T09:00:13.133Z,1014.73
2018-05-07T09:00:38.668Z,1014.72
2018-05-07T09:01:04.337Z,1014.71
2018-05-07T09:01:29.833Z,1014.71
2018-05-07T09:01:55.400Z,1014.67
2018-05-07T09:02:20.959Z,1014.67
2018-05-07T09:02:46.654Z,1014.76
2018-05-07T09:03:12.190Z,1014.76
2018-05-07T09:03:37.809Z,1014.7
2018-05-07T09:04:03.369Z,1014.7
2018-05-07T09:04:28.919Z,1014.75
2018-05-07T09:04:54.567Z,1014.71
2018-05-07T09:05:20.104Z,1014.75
2018-05-07T09:05:45.692Z,1014.76
2018-05-07T09:06:11.246Z,1014.67
2018-05-07T09:06:36.887Z,1014.64
2018-05-07T09:07:02.475Z,1014.63
2018-05-07T09:07:28.006Z,1014.68
2018-05-07T09:07:53.587Z,1014.65
2018-05-07T09:08:19.177Z,1014.66
2018-05-07T09:08:44.761Z,1014.64
2018-05-07T09:09:10.341Z,1014.62
2018-05-07T09:09:35.955Z,1014.65
2018-05-07T09:10:01.497Z,1014.61
2018-05-07T09:10:27.041Z,1014.63
2018-05-07T09:10:52.602Z,1014.62
2018-05-07T09:11:18.134Z,1014.63
2018-05-07T09:11:43.764Z,1014.6
2018-05-07T09:12:09.296Z,1014.63
2018-05-07T09:12:34.873Z,1014.52
2018-05-07T09:13:00.589Z,1014.58
2018-05-07T09:13:26.145Z,1014.56
2018-05-07T09:13:51.661Z,1014.54
2018-05-07T09:14:17.206Z,1014.56
2018-05-07T09:14:42.726Z,1014.54
2018-05-07T09:15:08.848Z,1014.56
2018-05-07T09:15:34.473Z,1014.52
2018-05-07T09:16:00.060Z,1014.51
2018-05-07T09:16:25.518Z,1014.57
2018-05-07T09:16:51.061Z,1014.52
2018-05-07T09:17:16.604Z,1014.52
2018-05-07T09:17:42.104Z,1014.55
2018-05-07T09:18:07.655Z,1014.5
2018-05-07T09:18:33.191Z,1014.58
2018-05-07T09:18:58.725Z,1014.5
2018-05-07T09:19:24.263Z,1014.53
2018-05-07T09:19:49.815Z,1014.62
2018-05-07T09:20:15.385Z,1014.5
2018-05-07T09:20:41.022Z,1014.5
2018-05-07T09:21:06.599Z,1014.49
2018-05-07T09:21:32.126Z,1014.51
2018-05-07T09:21:57.652Z,1014.53
2018-05-07T09:22:23.210Z,1014.54
2018-05-07T09:22:48.860Z,1014.48
2018-05-07T09:23:14.368Z,1014.52
2018-05-07T09:23:39.936Z,1014.47
2018-05-07T09:24:05.495Z,1014.56
2018-05-07T09:24:31.080Z,1014.49
2018-05-07T09:24:56.671Z,1014.5
2018-05-07T09:25:22.290Z,1014.49
2018-05-07T09:25:47.897Z,1014.54
2018-05-07T09:26:13.393Z,1014.52
2018-05-07T09:26:38.937Z,1014.55
2018-05-07T09:27:04.444Z,1014.51
2018-05-07T09:27:30.090Z,1014.51